createdAt,value
2018-07-05T00:00:33.717Z,20.68
2018-07-05T00:01:33.696Z,20.70
2018-07-05T00:02:33.701Z,20.68
2018-07-05T00:03:33.673Z,20.70
2018-07-05T00:04:33.658Z,20.61
2018-07-05T00:05:33.653Z,20.73
2018-07-05T00:06:33.671Z,20.74
2018-07-05T00:07:33.638Z,20.73
2018-07-05T00:08:33.615Z,20.70
2018-07-05T00:09:33.621Z,20.74
2018-07-05T00:10:33.598Z,20.68
2018-07-05T00:11:33.600Z,20.67
2018-07-05T00:12:33.592Z,20.71
2018-07-05T00:13:33.585Z,20.63
2018-07-05T00:14:33.550Z,20.63
2018-07-05T00:15:33.541Z,20.63
2018-07-05T00:16:33.533Z,20.60
2018-07-05T00:17:33.546Z,20.52
2018-07-05T00:18:33.507Z,20.50
2018-07-05T00:19:33.541Z,20.50
2018-07-05T00:20:33.491Z,20.50
2018-07-05T00:21:33.480Z,20.55
2018-07-05T00:22:33.466Z,20.53
2018-07-05T00:23:33.467Z,20.56
2018-07-05T00:24:33.446Z,20.58
2018-07-05T00:25:33.434Z,20.65
2018-07-05T00:26:33.424Z,20.68
2018-07-05T00:27:33.449Z,20.67
2018-07-05T00:28:33.414Z,20.67
2018-07-05T00:29:33.391Z,20.67
2018-07-05T00:30:33.379Z,20.67
2018-07-05T00:31:33.371Z,20.64
2018-07-05T00:32:33.371Z,20.65
2018-07-05T00:33:33.370Z,20.68
2018-07-05T00:34:33.360Z,20.55
2018-07-05T00:35:33.326Z,20.60
2018-07-05T00:36:33.317Z,20.50
2018-07-05T00:37:33.305Z,20.49
2018-07-05T00:38:33.306Z,20.52
2018-07-05T00:39:33.286Z,20.49
2018-07-05T00:40:33.295Z,20.49
2018-07-05T00:41:33.279Z,20.55
2018-07-05T00:42:33.310Z,20.53
2018-07-05T00:43:33.254Z,20.53
2018-07-05T00:44:33.241Z,20.50
2018-07-05T00:45:33.229Z,20.53
2018-07-05T00:46:33.214Z,20.55
2018-07-05T00:47:33.200Z,20.53
2018-07-05T00:48:33.199Z,20.49
2018-07-05T00:49:33.187Z,20.48
2018-07-05T00:50:33.170Z,20.52
2018-07-05T00:51:33.156Z,20.44
2018-07-05T00:52:33.148Z,20.48
2018-07-05T00:53:33.196Z,20.42
2018-07-05T00:54:33.147Z,20.42
2018-07-05T00:55:33.125Z,20.41
2018-07-05T00:56:33.108Z,20.36
2018-07-05T00:57:33.093Z,20.44
2018-07-05T00:58:33.101Z,20.39
2018-07-05T00:59:33.074Z,20.37
2018-07-05T01:00:33.084Z,20.25
2018-07-05T01:01:33.066Z,20.23
2018-07-05T01:02:33.080Z,20.18
2018-07-05T01:03:33.045Z,20.17
2018-07-05T01:04:33.018Z,20.12
2018-07-05T01:05:33.008Z,20.05
2018-07-05T01:06:32.997Z,20.07
2018-07-05T01:07:32.993Z,20.05
2018-07-05T01:08:33.025Z,19.99
2018-07-05T01:09:32.971Z,19.94
2018-07-05T01:10:32.954Z,19.97
2018-07-05T01:11:32.946Z,19.89
2018-07-05T01:12:33.030Z,19.84
2018-07-05T01:13:32.944Z,19.94
2018-07-05T01:14:32.921Z,19.92
2018-07-05T01:15:32.906Z,19.94
2018-07-05T01:16:32.893Z,19.81
2018-07-05T01:17:32.883Z,19.87
2018-07-05T01:18:32.918Z,19.84
2018-07-05T01:19:32.863Z,19.84
2018-07-05T01:20:32.849Z,19.84
2018-07-05T01:21:32.837Z,19.71
2018-07-05T01:22:32.848Z,19.71
2018-07-05T01:23:32.823Z,19.71
2018-07-05T01:24:32.825Z,19.67
2018-07-05T01:25:32.796Z,19.64
2018-07-05T01:26:32.787Z,19.60
2018-07-05T01:27:32.808Z,19.70
2018-07-05T01:28:32.763Z,19.56
2018-07-05T01:29:32.763Z,19.53
2018-07-05T01:30:32.745Z,19.56
2018-07-05T01:31:32.732Z,19.53
2018-07-05T01:32:32.742Z,19.53
2018-07-05T01:33:32.745Z,19.52
2018-07-05T01:34:32.717Z,19.56
2018-07-05T01:35:32.692Z,19.50
2018-07-05T01:36:32.681Z,19.50
2018-07-05T01:37:32.673Z,19.35
2018-07-05T01:38:32.667Z,19.38
2018-07-05T01:39:32.709Z,19.34
2018-07-05T01:40:32.640Z,19.37
2018-07-05T01:41:32.629Z,19.39
2018-07-05T01:42:32.627Z,19.37
2018-07-05T01:43:32.634Z,19.38
2018-07-05T01:44:32.624Z,19.30
2018-07-05T01:45:32.580Z,19.24
2018-07-05T01:46:32.572Z,19.30
2018-07-05T01:47:32.589Z,19.30
2018-07-05T01:48:32.559Z,19.27
2018-07-05T01:49:32.564Z,19.27
2018-07-05T01:50:32.566Z,19.31
2018-07-05T01:51:32.519Z,19.31
2018-07-05T01:52:32.586Z,19.27
2018-07-05T01:53:32.524Z,19.27
2018-07-05T01:54:32.533Z,19.19
2018-07-05T01:55:32.516Z,19.24
2018-07-05T01:56:32.491Z,19.20
2018-07-05T01:57:32.457Z,19.16
2018-07-05T01:58:32.452Z,19.17
2018-07-05T01:59:32.432Z,19.20
2018-07-05T02:00:32.426Z,19.23
2018-07-05T02:01:32.485Z,19.30
2018-07-05T02:02:32.400Z,19.32
2018-07-05T02:03:32.420Z,19.35
2018-07-05T02:04:32.378Z,19.41
2018-07-05T02:05:32.370Z,19.39
2018-07-05T02:06:32.620Z,19.49
2018-07-05T02:07:32.360Z,19.45
2018-07-05T02:08:32.339Z,19.52
2018-07-05T02:09:32.325Z,19.50
2018-07-05T02:10:32.316Z,19.35
2018-07-05T02:11:32.308Z,19.44
2018-07-05T02:12:32.320Z,19.35
2018-07-05T02:13:32.308Z,19.26
2018-07-05T02:14:32.375Z,19.34
2018-07-05T02:15:32.276Z,19.23
2018-07-05T02:16:32.252Z,19.19
2018-07-05T02:17:32.265Z,19.26
2018-07-05T02:18:32.234Z,19.17
2018-07-05T02:19:32.220Z,19.17
2018-07-05T02:20:32.209Z,19.15
2018-07-05T02:21:32.200Z,19.12
2018-07-05T02:22:32.213Z,19.15
2018-07-05T02:23:32.186Z,19.19
2018-07-05T02:24:32.168Z,19.12
2018-07-05T02:25:32.155Z,19.16
2018-07-05T02:26:32.144Z,19.20
2018-07-05T02:27:32.148Z,19.16
2018-07-05T02:28:32.128Z,19.27
2018-07-05T02:29:32.143Z,19.22
2018-07-05T02:30:32.107Z,19.37
2018-07-05T02:31:32.093Z,19.35
2018-07-05T02:32:32.094Z,19.31
2018-07-05T02:33:32.070Z,19.27
2018-07-05T02:34:32.075Z,19.26
2018-07-05T02:35:32.055Z,19.20
2018-07-05T02:36:32.057Z,19.19
2018-07-05T02:37:32.069Z,19.19
2018-07-05T02:38:32.015Z,19.23
2018-07-05T02:39:32.011Z,19.26
2018-07-05T02:40:32.004Z,19.22
2018-07-05T02:41:31.994Z,19.16
2018-07-05T02:42:31.991Z,19.23
2018-07-05T02:43:31.972Z,19.15
2018-07-05T02:44:31.958Z,19.13
2018-07-05T02:45:31.957Z,19.13
2018-07-05T02:46:31.935Z,18.97
2018-07-05T02:47:31.954Z,19.07
2018-07-05T02:48:31.923Z,19.05
2018-07-05T02:49:31.916Z,19.00
2018-07-05T02:50:31.887Z,19.08
2018-07-05T02:51:31.880Z,18.93
2018-07-05T02:52:31.874Z,18.97
2018-07-05T02:53:31.872Z,18.98
2018-07-05T02:54:31.852Z,18.97
2018-07-05T02:55:31.836Z,18.89
2018-07-05T02:56:31.828Z,18.86
2018-07-05T02:57:31.813Z,18.86
2018-07-05T02:58:31.820Z,18.83
2018-07-05T02:59:31.793Z,18.79
2018-07-05T03:00:31.782Z,18.78
2018-07-05T03:01:31.771Z,18.76
2018-07-05T03:02:31.791Z,18.68
2018-07-05T03:03:31.786Z,18.70
2018-07-05T03:04:31.763Z,18.58
2018-07-05T03:05:31.729Z,18.60
2018-07-05T03:06:31.719Z,18.63
2018-07-05T03:07:31.704Z,18.54
2018-07-05T03:08:31.716Z,18.61
2018-07-05T03:09:31.690Z,18.63
2018-07-05T03:10:31.701Z,18.58
2018-07-05T03:11:31.681Z,18.66
2018-07-05T03:12:31.653Z,18.61
2018-07-05T03:13:31.659Z,18.67
2018-07-05T03:14:31.632Z,18.63
2018-07-05T03:15:31.625Z,18.58
2018-07-05T03:16:31.619Z,18.63
2018-07-05T03:17:31.604Z,18.63
2018-07-05T03:18:31.603Z,18.61
2018-07-05T03:19:31.579Z,18.57
2018-07-05T03:20:31.610Z,18.57
2018-07-05T03:21:31.567Z,18.52
2018-07-05T03:22:31.570Z,18.57
2018-07-05T03:23:31.600Z,18.58
2018-07-05T03:24:31.549Z,18.54
2018-07-05T03:25:31.518Z,18.51
2018-07-05T03:26:31.513Z,18.52
2018-07-05T03:27:31.516Z,18.49
2018-07-05T03:28:31.481Z,18.51
2018-07-05T03:29:31.481Z,18.48
2018-07-05T03:30:31.464Z,18.46
2018-07-05T03:31:31.495Z,18.43
2018-07-05T03:32:31.449Z,18.46
2018-07-05T03:33:31.463Z,18.49
2018-07-05T03:34:31.434Z,18.46
2018-07-05T03:35:31.411Z,18.46
2018-07-05T03:36:31.419Z,18.51
2018-07-05T03:37:31.385Z,18.46
2018-07-05T03:38:31.385Z,18.57
2018-07-05T03:39:31.390Z,18.54
2018-07-05T03:40:31.360Z,18.58
2018-07-05T03:41:31.362Z,18.63
2018-07-05T03:42:31.334Z,18.67
2018-07-05T03:43:31.323Z,18.78
2018-07-05T03:44:31.357Z,18.82
2018-07-05T03:45:31.304Z,18.81
2018-07-05T03:46:31.290Z,18.85
2018-07-05T03:47:31.304Z,18.85
2018-07-05T03:48:31.267Z,18.74
2018-07-05T03:49:31.272Z,18.78
2018-07-05T03:50:31.250Z,18.70
2018-07-05T03:51:31.324Z,18.67
2018-07-05T03:52:31.223Z,18.68
2018-07-05T03:53:31.215Z,18.66
2018-07-05T03:54:31.230Z,18.70
2018-07-05T03:55:31.197Z,18.68
2018-07-05T03:56:31.191Z,18.82
2018-07-05T03:57:31.172Z,18.81
2018-07-05T03:58:31.162Z,18.74
2018-07-05T03:59:31.168Z,18.85
2018-07-05T04:00:31.151Z,18.85
2018-07-05T04:01:31.134Z,18.82
2018-07-05T04:02:31.141Z,18.83
2018-07-05T04:03:31.107Z,18.78
2018-07-05T04:04:31.149Z,18.76
2018-07-05T04:05:31.092Z,18.75
2018-07-05T04:06:31.089Z,18.83
2018-07-05T04:07:31.074Z,18.68
2018-07-05T04:08:31.058Z,18.78
2018-07-05T04:09:31.077Z,18.76
2018-07-05T04:10:31.052Z,18.76
2018-07-05T04:11:31.028Z,18.76
2018-07-05T04:12:31.096Z,18.71
2018-07-05T04:13:31.004Z,18.76
2018-07-05T04:14:30.992Z,18.68
2018-07-05T04:15:30.991Z,18.74
2018-07-05T04:16:30.971Z,18.79
2018-07-05T04:17:30.966Z,18.78
2018-07-05T04:18:30.945Z,18.75
2018-07-05T04:19:30.945Z,18.67
2018-07-05T04:20:30.941Z,18.67
2018-07-05T04:21:30.914Z,18.66
2018-07-05T04:22:30.903Z,18.70
2018-07-05T04:23:30.900Z,18.78
2018-07-05T04:24:30.883Z,18.75
2018-07-05T04:25:30.889Z,18.81
2018-07-05T04:26:30.864Z,18.81
2018-07-05T04:27:30.862Z,18.83
2018-07-05T04:28:30.841Z,18.91
2018-07-05T04:29:30.830Z,18.93
2018-07-05T04:30:30.852Z,18.94
2018-07-05T04:31:30.817Z,18.97
2018-07-05T04:32:30.795Z,19.05
2018-07-05T04:33:30.788Z,19.00
2018-07-05T04:34:30.795Z,18.89
2018-07-05T04:35:30.778Z,18.97
2018-07-05T04:36:30.760Z,19.01
2018-07-05T04:37:30.761Z,18.97
2018-07-05T04:38:30.729Z,18.96
2018-07-05T04:39:30.723Z,18.91
2018-07-05T04:40:30.744Z,18.93
2018-07-05T04:41:30.723Z,18.89
2018-07-05T04:42:30.709Z,18.85
2018-07-05T04:43:30.708Z,18.93
2018-07-05T04:44:30.667Z,18.97
2018-07-05T04:45:30.657Z,18.96
2018-07-05T04:46:30.659Z,18.91
2018-07-05T04:47:30.637Z,18.96
2018-07-05T04:48:30.630Z,19.12
2018-07-05T04:49:30.612Z,19.12
2018-07-05T04:50:30.612Z,19.04
2018-07-05T04:51:30.625Z,19.12
2018-07-05T04:52:30.584Z,19.07
2018-07-05T04:53:30.575Z,19.15
2018-07-05T04:54:30.565Z,19.16
2018-07-05T04:55:30.557Z,19.20
2018-07-05T04:56:30.550Z,19.23
2018-07-05T04:57:30.535Z,19.15
2018-07-05T04:58:30.544Z,19.23
2018-07-05T04:59:30.510Z,19.22
2018-07-05T05:00:30.517Z,19.32
2018-07-05T05:01:30.498Z,19.19
2018-07-05T05:02:30.532Z,19.23
2018-07-05T05:03:30.473Z,19.24
2018-07-05T05:04:30.462Z,19.34
2018-07-05T05:05:30.451Z,19.30
2018-07-05T05:06:30.473Z,19.26
2018-07-05T05:07:30.422Z,19.22
2018-07-05T05:08:30.415Z,19.31
2018-07-05T05:09:30.401Z,19.24
2018-07-05T05:10:30.400Z,19.27
2018-07-05T05:11:30.395Z,19.35
2018-07-05T05:12:30.366Z,19.31
2018-07-05T05:13:30.370Z,19.30
2018-07-05T05:14:30.352Z,19.30
2018-07-05T05:15:30.351Z,19.31
2018-07-05T05:16:30.350Z,19.34
2018-07-05T05:17:30.342Z,19.26
2018-07-05T05:18:30.309Z,19.27
2018-07-05T05:19:30.291Z,19.30
2018-07-05T05:20:30.313Z,19.35
2018-07-05T05:21:30.300Z,19.32
2018-07-05T05:22:30.259Z,19.37
2018-07-05T05:23:30.277Z,19.38
2018-07-05T05:24:30.240Z,19.38
2018-07-05T05:25:30.227Z,19.50
2018-07-05T05:26:30.235Z,19.39
2018-07-05T05:27:30.231Z,19.47
2018-07-05T05:28:30.210Z,19.47
2018-07-05T05:29:30.196Z,19.41
2018-07-05T05:30:30.179Z,19.49
2018-07-05T05:31:30.162Z,19.56
2018-07-05T05:32:30.166Z,19.53
2018-07-05T05:33:30.146Z,19.54
2018-07-05T05:34:30.156Z,19.53
2018-07-05T05:35:30.122Z,19.52
2018-07-05T05:36:30.118Z,19.52
2018-07-05T05:37:30.110Z,19.50
2018-07-05T05:38:30.089Z,19.52
2018-07-05T05:39:30.078Z,19.54
2018-07-05T05:40:30.070Z,19.56
2018-07-05T05:41:30.063Z,19.57
2018-07-05T05:42:30.130Z,19.56
2018-07-05T05:43:30.036Z,19.57
2018-07-05T05:44:30.031Z,19.64
2018-07-05T05:45:30.017Z,19.70
2018-07-05T05:46:30.007Z,19.71
2018-07-05T05:47:30.018Z,19.72
2018-07-05T05:48:29.981Z,19.67
2018-07-05T05:49:29.976Z,19.81
2018-07-05T05:50:29.968Z,19.79
2018-07-05T05:51:29.952Z,19.92
2018-07-05T05:52:29.950Z,19.87
2018-07-05T05:53:29.932Z,19.87
2018-07-05T05:54:29.925Z,19.96
2018-07-05T05:55:29.944Z,19.97
2018-07-05T05:56:29.905Z,19.97
2018-07-05T05:57:29.898Z,20.00
2018-07-05T05:58:29.875Z,20.04
2018-07-05T05:59:29.871Z,20.14
2018-07-05T06:00:29.855Z,20.12
2018-07-05T06:01:29.845Z,20.11
2018-07-05T06:02:29.838Z,20.15
2018-07-05T06:03:29.833Z,20.18
2018-07-05T06:04:29.813Z,20.26
2018-07-05T06:05:29.801Z,20.29
2018-07-05T06:06:29.793Z,20.30
2018-07-05T06:07:29.798Z,20.37
2018-07-05T06:08:29.791Z,20.46
2018-07-05T06:09:29.761Z,20.46
2018-07-05T06:10:29.747Z,20.36
2018-07-05T07:32:40.058Z,22.73
2018-07-05T07:33:40.201Z,22.62
2018-07-05T07:34:40.321Z,22.58
2018-07-05T07:35:39.973Z,22.46
2018-07-05T07:36:39.658Z,22.41
2018-07-05T07:37:39.955Z,22.33
2018-07-05T07:38:39.534Z,22.33
2018-07-05T07:39:40.000Z,22.21
2018-07-05T07:40:39.800Z,22.09
2018-07-05T07:41:39.478Z,22.15
2018-07-05T07:42:39.381Z,22.18
2018-07-05T07:43:39.466Z,22.11
2018-07-05T07:44:39.580Z,22.13
2018-07-05T07:45:39.446Z,22.16
2018-07-05T07:46:39.298Z,22.12
2018-07-05T07:47:39.158Z,22.13
2018-07-05T07:48:38.977Z,22.09
2018-07-05T07:49:40.142Z,22.09
2018-07-05T07:50:39.743Z,22.06
2018-07-05T07:51:38.960Z,22.07
2018-07-05T07:52:38.737Z,22.07
2018-07-05T07:53:38.343Z,22.06
2018-07-05T08:31:13.203Z,23.08
2018-07-05T08:32:12.983Z,23.06
2018-07-05T08:33:12.978Z,23.07
2018-07-05T08:34:13.448Z,22.99
2018-07-05T08:35:12.863Z,22.93
2018-07-05T08:36:13.219Z,22.95
2018-07-05T08:37:12.543Z,22.88
2018-07-05T08:38:13.282Z,22.92
2018-07-05T08:39:12.256Z,22.80
2018-07-05T08:40:12.601Z,22.85
2018-07-05T08:41:12.119Z,22.80
2018-07-05T08:42:12.341Z,22.77
2018-07-05T08:43:12.377Z,22.83
2018-07-05T08:44:11.739Z,22.80
2018-07-05T08:45:11.639Z,22.88
2018-07-05T08:46:11.635Z,22.86
2018-07-05T08:47:11.860Z,22.83
2018-07-05T08:48:11.503Z,22.88
2018-07-05T08:49:11.875Z,22.91
2018-07-05T08:50:10.904Z,22.98
2018-07-05T08:51:11.115Z,22.96
2018-07-05T08:52:10.960Z,22.99
2018-07-05T08:53:10.837Z,22.99
2018-07-05T08:54:10.421Z,22.98
2018-07-05T08:55:10.920Z,22.95
2018-07-05T08:56:10.496Z,22.96
2018-07-05T08:57:10.317Z,22.89
2018-07-05T08:58:10.226Z,22.85
2018-07-05T08:59:10.539Z,22.96
2018-07-05T09:00:10.017Z,22.91
2018-07-05T09:01:09.822Z,22.98
2018-07-05T09:02:09.825Z,23.03
2018-07-05T09:03:09.536Z,22.96
2018-07-05T09:04:09.462Z,23.06
2018-07-05T09:05:09.453Z,23.07
2018-07-05T09:06:09.042Z,23.10
2018-07-05T09:07:09.242Z,23.13
2018-07-05T09:08:08.806Z,23.13
2018-07-05T09:09:08.723Z,23.22
2018-07-05T09:10:08.541Z,23.07
2018-07-05T09:11:08.662Z,23.11
2018-07-05T09:12:08.919Z,23.15
2018-07-05T09:13:08.661Z,23.22
2018-07-05T09:14:08.263Z,23.15
2018-07-05T09:15:09.198Z,23.21
2018-07-05T09:16:07.920Z,23.34
2018-07-05T09:17:07.219Z,23.33
2018-07-05T09:18:08.145Z,23.29
2018-07-05T09:19:07.741Z,23.37
2018-07-05T09:20:07.595Z,23.41
2018-07-05T09:21:07.753Z,23.41
2018-07-05T09:22:07.681Z,23.44
2018-07-05T09:23:07.422Z,23.52
2018-07-05T09:24:07.198Z,23.59
2018-07-05T09:25:07.635Z,23.56
2018-07-05T09:26:07.195Z,23.69
2018-07-05T09:27:06.620Z,23.69
2018-07-05T09:28:07.204Z,23.66
2018-07-05T09:29:06.518Z,23.71
2018-07-05T09:30:06.379Z,23.70
2018-07-05T09:31:06.395Z,23.76
2018-07-05T09:32:06.623Z,23.79
2018-07-05T09:33:05.978Z,23.79
2018-07-05T09:34:07.541Z,23.84
2018-07-05T09:35:06.102Z,23.94
2018-07-05T09:36:05.653Z,23.92
2018-07-05T09:37:05.404Z,23.91
2018-07-05T09:38:05.841Z,23.92
2018-07-05T09:39:05.763Z,24.03
2018-07-05T09:40:05.481Z,24.03
2018-07-05T09:41:05.118Z,24.04
2018-07-05T09:42:04.821Z,24.03
2018-07-05T09:43:05.261Z,24.00
2018-07-05T09:44:28.695Z,24.07
2018-07-05T09:45:28.481Z,24.04
2018-07-05T09:46:28.536Z,24.06
2018-07-05T09:47:28.307Z,24.16
